Time;durP1;ratioP1;P1;durP2;ratioP2;P2;SDS_P1;SDS_P2;PMS_P1;PMS_P2;Temp;Humidity;BMP_temperature;BMP_pressure;BME280_temperature;BME280_humidity;BME280_pressure;Samples;Min_cycle;Max_cycle;Signal;HPM_P1;HPM_P2
2023/12/19 00:01:54;;;;;;;2.85;1.60;;;;;;;;;;4904719;29;20409;-90
2023/12/19 00:04:25;;;;;;;4.65;1.30;;;;;;;;;;4919008;29;20086;-89
2023/12/19 00:06:55;;;;;;;3.55;1.27;;;;;;;;;;4919372;29;20063;-90
2023/12/19 00:09:26;;;;;;;2.88;1.40;;;;;;;;;;4936055;29;20056;-89
2023/12/19 00:12:04;;;;;;;2.05;1.13;;;;;;;;;;4904599;29;20060;-90
2023/12/19 00:14:35;;;;;;;2.75;1.40;;;;;;;;;;4935476;29;20055;-90
2023/12/19 00:17:09;;;;;;;2.58;1.23;;;;;;;;;;4920666;29;20072;-90
2023/12/19 00:19:44;;;;;;;3.17;1.42;;;;;;;;;;4923557;29;20048;-89
2023/12/19 00:22:15;;;;;;;3.28;1.40;;;;;;;;;;4926691;29;20055;-90
2023/12/19 00:24:45;;;;;;;5.30;1.30;;;;;;;;;;4920066;29;20051;-90
2023/12/19 00:27:16;;;;;;;3.20;0.90;;;;;;;;;;4907503;29;20066;-91
2023/12/19 00:30:18;;;;;;;5.13;1.00;;;;;;;;;;4931007;29;20092;-90
2023/12/19 00:32:52;;;;;;;2.33;1.17;;;;;;;;;;4929735;29;20040;-89
2023/12/19 00:35:48;;;;;;;2.47;1.20;;;;;;;;;;4931716;29;20052;-89
2023/12/19 00:38:32;;;;;;;3.38;1.40;;;;;;;;;;4936283;29;20027;-87
2023/12/19 00:41:03;;;;;;;3.20;1.30;;;;;;;;;;4918341;29;20036;-89
2023/12/19 00:43:34;;;;;;;5.72;1.63;;;;;;;;;;4939947;28;20058;-87
2023/12/19 00:46:04;;;;;;;3.08;1.25;;;;;;;;;;4956803;28;20046;-87
2023/12/19 00:48:35;;;;;;;9.18;1.42;;;;;;;;;;4941128;29;20031;-86
2023/12/19 00:51:10;;;;;;;3.00;1.10;;;;;;;;;;4922167;29;20047;-85
2023/12/19 00:53:43;;;;;;;5.50;1.63;;;;;;;;;;4916453;29;20044;-86
2023/12/19 00:56:13;;;;;;;3.28;1.10;;;;;;;;;;4915548;29;20071;-89
2023/12/19 00:58:44;;;;;;;3.92;1.75;;;;;;;;;;4916497;29;20056;-86
2023/12/19 01:01:22;;;;;;;2.75;1.10;;;;;;;;;;4915749;29;20051;-86
2023/12/19 01:03:53;;;;;;;4.35;1.35;;;;;;;;;;4916723;29;20060;-87
2023/12/19 01:06:23;;;;;;;3.38;1.38;;;;;;;;;;4916332;29;20055;-86
2023/12/19 01:08:54;;;;;;;3.72;1.40;;;;;;;;;;4916070;29;20078;-85
2023/12/19 01:11:25;;;;;;;4.10;1.38;;;;;;;;;;4916333;29;20064;-86
2023/12/19 01:13:55;;;;;;;3.28;1.63;;;;;;;;;;4900723;29;20051;-88
2023/12/19 01:16:26;;;;;;;5.30;1.40;;;;;;;;;;4916736;29;20056;-86
2023/12/19 01:18:57;;;;;;;3.13;1.52;;;;;;;;;;4917272;29;20059;-85
2023/12/19 01:21:29;;;;;;;3.17;1.20;;;;;;;;;;4916788;29;20052;-86
2023/12/19 01:24:00;;;;;;;3.63;1.55;;;;;;;;;;4932217;29;20067;-87
2023/12/19 01:26:32;;;;;;;3.25;1.20;;;;;;;;;;4931506;29;20494;-87
2023/12/19 01:29:03;;;;;;;2.47;1.30;;;;;;;;;;4902356;29;20491;-85
2023/12/19 01:31:35;;;;;;;4.07;1.33;;;;;;;;;;4917210;29;20052;-87
2023/12/19 01:34:06;;;;;;;3.92;1.17;;;;;;;;;;4919833;29;20054;-89
2023/12/19 01:36:45;;;;;;;4.03;1.17;;;;;;;;;;4905461;29;20043;-90
2023/12/19 01:39:26;;;;;;;3.95;1.20;;;;;;;;;;4906108;29;20044;-87
2023/12/19 01:41:58;;;;;;;5.32;1.38;;;;;;;;;;4919694;29;20048;-90
2023/12/19 01:44:28;;;;;;;4.38;1.63;;;;;;;;;;4906075;29;20055;-88
2023/12/19 01:47:00;;;;;;;3.13;1.27;;;;;;;;;;4921142;29;20442;-90
2023/12/19 01:49:32;;;;;;;5.80;1.40;;;;;;;;;;4906639;29;20108;-88
2023/12/19 01:52:03;;;;;;;3.00;1.40;;;;;;;;;;4921169;29;20063;-89
2023/12/19 01:54:35;;;;;;;5.47;1.55;;;;;;;;;;4919494;29;20406;-89
2023/12/19 01:57:06;;;;;;;3.05;1.20;;;;;;;;;;4904538;29;20499;-89
2023/12/19 01:59:37;;;;;;;2.40;1.25;;;;;;;;;;4921989;29;20056;-89
2023/12/19 02:02:08;;;;;;;2.47;1.40;;;;;;;;;;4936573;29;20048;-87
2023/12/19 02:04:38;;;;;;;5.53;1.88;;;;;;;;;;4920835;29;20403;-91
2023/12/19 02:07:10;;;;;;;2.65;1.40;;;;;;;;;;4936731;29;20632;-88
2023/12/19 02:09:40;;;;;;;6.18;1.30;;;;;;;;;;4920123;29;20056;-92
2023/12/19 02:12:12;;;;;;;3.85;1.40;;;;;;;;;;4919460;29;20079;-90
2023/12/19 02:14:46;;;;;;;4.97;1.88;;;;;;;;;;4922385;29;20062;-93
2023/12/19 02:17:18;;;;;;;5.32;1.45;;;;;;;;;;4938878;29;20059;-90
2023/12/19 02:19:53;;;;;;;4.20;1.60;;;;;;;;;;4922151;29;20051;-89
2023/12/19 02:22:24;;;;;;;4.70;2.33;;;;;;;;;;4904490;29;20056;-89
2023/12/19 02:29:06;;;;;;;4.07;1.65;;;;;;;;;;4920154;29;20096;-90
2023/12/19 02:32:52;;;;;;;;;;;;;;;;;;;;;
2023/12/19 02:36:45;;;;;;;3.28;1.45;;;;;;;;;;4900837;29;20056;-91
2023/12/19 03:08:16;;;;;;;4.78;1.65;;;;;;;;;;5910977;23;20026;-90
2023/12/19 03:10:48;;;;;;;5.30;1.75;;;;;;;;;;4929251;29;20059;-90
2023/12/19 03:13:18;;;;;;;4.25;1.80;;;;;;;;;;4930428;29;20051;-90
2023/12/19 03:15:49;;;;;;;7.20;1.90;;;;;;;;;;4915240;29;20055;-90
2023/12/19 03:18:24;;;;;;;3.88;1.63;;;;;;;;;;4922907;29;20050;-89
2023/12/19 03:20:56;;;;;;;4.85;1.58;;;;;;;;;;4930959;29;20051;-90
2023/12/19 03:23:28;;;;;;;3.75;1.63;;;;;;;;;;4916215;29;20051;-90
2023/12/19 03:25:59;;;;;;;7.72;1.85;;;;;;;;;;4922314;29;20051;-93
2023/12/19 03:28:29;;;;;;;6.32;1.70;;;;;;;;;;4910664;29;20441;-90
2023/12/19 03:30:59;;;;;;;6.07;2.00;;;;;;;;;;4927263;29;20112;-89
2023/12/19 03:33:32;;;;;;;4.80;1.80;;;;;;;;;;4910460;29;20050;-89
2023/12/19 03:36:02;;;;;;;4.13;1.75;;;;;;;;;;4929259;29;20047;-90
2023/12/19 03:38:32;;;;;;;9.68;1.90;;;;;;;;;;4943716;29;20066;-91
2023/12/19 03:41:03;;;;;;;3.63;2.00;;;;;;;;;;4922024;29;20055;-91
2023/12/19 03:43:34;;;;;;;7.60;1.65;;;;;;;;;;4922399;29;20052;-90
2023/12/19 03:46:07;;;;;;;6.18;2.10;;;;;;;;;;4923376;29;20059;-91
2023/12/19 03:48:38;;;;;;;7.80;2.45;;;;;;;;;;4920985;29;20407;-92
2023/12/19 03:51:09;;;;;;;7.72;2.65;;;;;;;;;;4936260;29;20062;-91
2023/12/19 03:53:42;;;;;;;6.40;2.00;;;;;;;;;;4921348;29;20051;-91
2023/12/19 03:56:12;;;;;;;6.38;1.77;;;;;;;;;;4920732;29;20066;-89
2023/12/19 03:58:43;;;;;;;10.93;2.40;;;;;;;;;;4935895;29;20055;-90
2023/12/19 04:01:14;;;;;;;6.40;2.00;;;;;;;;;;4935629;29;20510;-91
2023/12/19 04:03:45;;;;;;;8.80;2.30;;;;;;;;;;4920682;29;20413;-90
2023/12/19 04:06:15;;;;;;;8.85;2.08;;;;;;;;;;4920011;29;20056;-88
2023/12/19 04:08:46;;;;;;;7.80;2.00;;;;;;;;;;4920027;29;20083;-91
2023/12/19 04:11:18;;;;;;;7.80;1.80;;;;;;;;;;4937262;29;20054;-91
2023/12/19 04:13:50;;;;;;;4.72;2.03;;;;;;;;;;4935831;29;20051;-91
2023/12/19 04:16:19;;;;;;;5.78;2.00;;;;;;;;;;4926224;29;20052;-90
2023/12/19 04:18:51;;;;;;;5.80;2.10;;;;;;;;;;4919466;29;20522;-90
2023/12/19 04:21:21;;;;;;;6.80;2.17;;;;;;;;;;4919783;29;20067;-89
2023/12/19 04:23:52;;;;;;;7.88;2.08;;;;;;;;;;4904146;29;20056;-90
2023/12/19 04:26:23;;;;;;;6.78;1.88;;;;;;;;;;4919303;29;20048;-89
2023/12/19 04:28:53;;;;;;;8.02;2.28;;;;;;;;;;4919275;29;20407;-90
2023/12/19 04:31:24;;;;;;;4.55;2.00;;;;;;;;;;4922339;29;20052;-91
2023/12/19 04:33:56;;;;;;;6.25;2.22;;;;;;;;;;4922682;29;20063;-91
2023/12/19 04:36:28;;;;;;;9.32;2.65;;;;;;;;;;4922579;29;20063;-91
2023/12/19 04:38:58;;;;;;;12.85;2.85;;;;;;;;;;4904281;29;20490;-90
2023/12/19 04:41:29;;;;;;;8.07;2.65;;;;;;;;;;4919611;29;20078;-90
2023/12/19 04:43:58;;;;;;;8.93;2.80;;;;;;;;;;4920079;29;20388;-90
2023/12/19 04:46:29;;;;;;;5.63;2.35;;;;;;;;;;4919021;29;20060;-91
2023/12/19 04:48:59;;;;;;;7.00;2.65;;;;;;;;;;4919581;29;20063;-90
2023/12/19 04:51:29;;;;;;;9.32;2.58;;;;;;;;;;4919184;29;20063;-90
2023/12/19 04:54:00;;;;;;;7.50;2.22;;;;;;;;;;4919632;29;20537;-90
2023/12/19 04:56:32;;;;;;;10.32;2.42;;;;;;;;;;4920413;29;20051;-91
2023/12/19 04:59:02;;;;;;;5.50;2.25;;;;;;;;;;4913551;29;20063;-91
2023/12/19 05:01:32;;;;;;;10.52;2.17;;;;;;;;;;4926155;29;20047;-92
2023/12/19 05:04:03;;;;;;;4.80;1.98;;;;;;;;;;4919264;29;20065;-90
2023/12/19 05:06:34;;;;;;;6.72;2.30;;;;;;;;;;4902402;29;20052;-90
2023/12/19 05:09:07;;;;;;;12.48;2.20;;;;;;;;;;4930676;29;20056;-91
2023/12/19 05:11:37;;;;;;;;;;;;;;;;;;4916260;29;20052;-91
2023/12/19 05:14:08;;;;;;;11.23;2.83;;;;;;;;;;4916272;29;20235;-91
2023/12/19 05:16:38;;;;;;;8.07;1.88;;;;;;;;;;4915866;29;20227;-91
2023/12/19 05:19:08;;;;;;;6.78;2.33;;;;;;;;;;4915592;29;20059;-91
2023/12/19 05:21:40;;;;;;;7.43;2.35;;;;;;;;;;4916378;29;20063;-92
2023/12/19 05:24:10;;;;;;;8.57;1.92;;;;;;;;;;4915780;29;20052;-90
2023/12/19 05:26:40;;;;;;;10.95;2.55;;;;;;;;;;4915405;29;20060;-89
2023/12/19 05:29:09;;;;;;;10.52;2.30;;;;;;;;;;4915832;29;20546;-89
2023/12/19 05:31:39;;;;;;;7.75;1.90;;;;;;;;;;4915388;29;20060;-89
2023/12/19 05:34:09;;;;;;;8.95;2.17;;;;;;;;;;4915064;29;20064;-89
2023/12/19 05:36:46;;;;;;;11.57;2.30;;;;;;;;;;4915852;29;20067;-89
2023/12/19 05:39:17;;;;;;;6.45;2.10;;;;;;;;;;4916064;29;20055;-91
2023/12/19 05:41:51;;;;;;;9.50;2.45;;;;;;;;;;4900573;29;20496;-90
2023/12/19 05:44:21;;;;;;;;;;;;;;;;;;4900479;29;20060;-90
2023/12/19 05:46:52;;;;;;;4.15;1.67;;;;;;;;;;4916436;29;19943;-91
2023/12/19 05:49:22;;;;;;;4.72;1.63;;;;;;;;;;4916241;29;20515;-91
2023/12/19 05:51:52;;;;;;;4.55;2.05;;;;;;;;;;4915727;29;20060;-91
2023/12/19 05:54:24;;;;;;;8.27;1.98;;;;;;;;;;4915942;29;20059;-91
2023/12/19 05:56:56;;;;;;;2.85;1.70;;;;;;;;;;4915376;29;20075;-90
2023/12/19 05:59:26;;;;;;;8.65;2.10;;;;;;;;;;4915871;29;20407;-91
2023/12/19 06:01:57;;;;;;;6.32;2.15;;;;;;;;;;4915411;29;20138;-91
2023/12/19 06:04:28;;;;;;;8.63;1.85;;;;;;;;;;4916517;29;20502;-91
2023/12/19 06:06:59;;;;;;;7.53;2.00;;;;;;;;;;4915031;29;20055;-91
2023/12/19 06:09:31;;;;;;;7.35;2.03;;;;;;;;;;4900550;29;20060;-91
2023/12/19 06:12:03;;;;;;;5.78;2.20;;;;;;;;;;4917563;29;20048;-90
2023/12/19 06:14:37;;;;;;;12.13;2.30;;;;;;;;;;4900309;29;20060;-90
2023/12/19 06:17:08;;;;;;;12.15;2.05;;;;;;;;;;4915346;29;20048;-91
2023/12/19 06:19:39;;;;;;;5.82;2.15;;;;;;;;;;4920341;29;20142;-90
2023/12/19 06:22:10;;;;;;;6.65;2.40;;;;;;;;;;4920240;29;20064;-91
2023/12/19 06:24:40;;;;;;;7.85;2.38;;;;;;;;;;4904832;29;20048;-90
2023/12/19 06:27:15;;;;;;;9.85;2.95;;;;;;;;;;4919563;29;20428;-91
2023/12/19 06:29:46;;;;;;;7.45;2.58;;;;;;;;;;4918229;29;20067;-91
2023/12/19 06:32:17;;;;;;;8.35;3.28;;;;;;;;;;4917875;29;20048;-91
2023/12/19 06:34:48;;;;;;;5.22;2.58;;;;;;;;;;4917994;29;20056;-91
2023/12/19 06:37:18;;;;;;;8.43;2.92;;;;;;;;;;4920462;29;20403;-92
2023/12/19 06:39:48;;;;;;;7.80;2.65;;;;;;;;;;4918299;29;20056;-91
2023/12/19 06:42:18;;;;;;;4.70;2.53;;;;;;;;;;4903059;29;20060;-91
2023/12/19 06:44:49;;;;;;;6.05;2.65;;;;;;;;;;4917916;29;20063;-91
2023/12/19 06:47:20;;;;;;;5.10;2.25;;;;;;;;;;4903467;29;20483;-91
2023/12/19 06:49:50;;;;;;;9.00;2.90;;;;;;;;;;4917914;29;20056;-91
2023/12/19 06:52:20;;;;;;;11.07;2.95;;;;;;;;;;4917955;29;20048;-92
2023/12/19 06:54:50;;;;;;;8.32;2.90;;;;;;;;;;4902969;29;20514;-90
2023/12/19 06:57:20;;;;;;;5.03;3.10;;;;;;;;;;4918416;29;20063;-90
2023/12/19 06:59:52;;;;;;;8.27;2.40;;;;;;;;;;4919126;29;20078;-91
2023/12/19 07:02:23;;;;;;;7.55;2.92;;;;;;;;;;4918130;29;20059;-90
2023/12/19 07:04:54;;;;;;;7.90;2.90;;;;;;;;;;4919218;29;20051;-92
2023/12/19 07:07:24;;;;;;;10.25;3.08;;;;;;;;;;4918356;29;20060;-91
2023/12/19 07:09:54;;;;;;;7.10;3.47;;;;;;;;;;4918295;29;20071;-92
2023/12/19 07:12:25;;;;;;;8.60;3.83;;;;;;;;;;4918286;29;20059;-91
2023/12/19 07:14:55;;;;;;;16.27;3.33;;;;;;;;;;4903705;29;20083;-93
2023/12/19 07:17:25;;;;;;;12.30;3.70;;;;;;;;;;4903880;29;20056;-92
2023/12/19 07:19:56;;;;;;;9.80;3.70;;;;;;;;;;4903578;29;20411;-91
2023/12/19 07:22:27;;;;;;;17.33;4.60;;;;;;;;;;4932983;29;20067;-89
2023/12/19 07:24:58;;;;;;;15.00;5.30;;;;;;;;;;4905733;29;20067;-91
2023/12/19 07:27:31;;;;;;;21.77;4.90;;;;;;;;;;4903246;29;20052;-90
2023/12/19 07:30:06;;;;;;;37.47;5.53;;;;;;;;;;4902154;29;20059;-90
2023/12/19 07:32:38;;;;;;;13.88;3.50;;;;;;;;;;4902726;29;20059;-90
2023/12/19 07:35:13;;;;;;;32.08;5.10;;;;;;;;;;4902834;29;20431;-90
2023/12/19 07:37:43;;;;;;;27.23;4.63;;;;;;;;;;4918147;29;20483;-90
2023/12/19 07:40:14;;;;;;;19.65;4.20;;;;;;;;;;4901952;29;20063;-91
2023/12/19 07:42:45;;;;;;;11.30;4.30;;;;;;;;;;4917874;29;20067;-91
2023/12/19 07:45:17;;;;;;;18.33;4.88;;;;;;;;;;4903390;29;20051;-89
2023/12/19 07:47:48;;;;;;;15.35;5.22;;;;;;;;;;4909721;29;20056;-89
2023/12/19 07:50:18;;;;;;;26.02;4.05;;;;;;;;;;4925175;29;20082;-89
2023/12/19 07:52:50;;;;;;;11.10;2.85;;;;;;;;;;4909448;29;20060;-90
2023/12/19 07:55:21;;;;;;;15.02;3.63;;;;;;;;;;4918753;29;20048;-88
2023/12/19 07:57:52;;;;;;;55.75;5.03;;;;;;;;;;4902195;29;20060;-89
2023/12/19 08:00:24;;;;;;;;;;;;;;;;;;4937951;28;20036;-88
2023/12/19 08:02:54;;;;;;;36.67;4.10;;;;;;;;;;4901113;29;19939;-89
2023/12/19 08:05:27;;;;;;;24.33;3.42;;;;;;;;;;4902060;29;20389;-89
2023/12/19 08:07:57;;;;;;;31.98;5.65;;;;;;;;;;4916565;29;20056;-90
2023/12/19 08:10:27;;;;;;;27.80;5.20;;;;;;;;;;4901394;29;20063;-88
2023/12/19 08:12:59;;;;;;;12.13;4.80;;;;;;;;;;4916625;29;20063;-89
2023/12/19 08:15:29;;;;;;;20.77;3.95;;;;;;;;;;4916699;29;20052;-88
2023/12/19 08:17:59;;;;;;;32.35;5.32;;;;;;;;;;4917734;29;20052;-89
2023/12/19 08:20:30;;;;;;;32.40;6.25;;;;;;;;;;4916327;29;20048;-88
2023/12/19 08:23:00;;;;;;;32.97;8.00;;;;;;;;;;4916271;29;20047;-90
2023/12/19 08:25:31;;;;;;;34.10;8.02;;;;;;;;;;4916161;29;20060;-89
2023/12/19 08:28:04;;;;;;;30.92;7.47;;;;;;;;;;4901466;29;20056;-89
2023/12/19 08:30:35;;;;;;;50.05;8.60;;;;;;;;;;4917326;29;20156;-90
2023/12/19 08:33:06;;;;;;;53.88;7.47;;;;;;;;;;4916919;29;20407;-90
2023/12/19 08:35:37;;;;;;;42.88;8.98;;;;;;;;;;4931515;29;20060;-90
2023/12/19 08:38:08;;;;;;;27.17;7.60;;;;;;;;;;4916567;29;20060;-90
2023/12/19 08:40:40;;;;;;;25.60;7.95;;;;;;;;;;4916523;29;20056;-90
2023/12/19 08:43:11;;;;;;;30.52;8.98;;;;;;;;;;4916588;29;20052;-89
2023/12/19 08:45:43;;;;;;;40.38;9.10;;;;;;;;;;4916824;29;20419;-90
2023/12/19 08:48:13;;;;;;;22.58;7.82;;;;;;;;;;4901641;29;20063;-90
2023/12/19 08:50:44;;;;;;;27.40;8.20;;;;;;;;;;4931673;29;20056;-91
2023/12/19 08:53:15;;;;;;;23.52;7.65;;;;;;;;;;4901671;29;20518;-90
2023/12/19 08:55:47;;;;;;;25.58;7.45;;;;;;;;;;4901977;29;20051;-92
2023/12/19 08:58:17;;;;;;;30.80;8.95;;;;;;;;;;4916620;29;20063;-89
2023/12/19 09:00:49;;;;;;;36.97;8.20;;;;;;;;;;4902133;29;20059;-91
2023/12/19 09:03:23;;;;;;;28.20;8.20;;;;;;;;;;4917080;29;20052;-91
2023/12/19 09:05:53;;;;;;;20.15;7.45;;;;;;;;;;4916634;29;20070;-90
2023/12/19 09:08:25;;;;;;;24.40;7.25;;;;;;;;;;4904880;29;20066;-90
2023/12/19 09:10:55;;;;;;;20.27;7.40;;;;;;;;;;4936398;29;20055;-89
2023/12/19 09:13:25;;;;;;;20.95;7.25;;;;;;;;;;4919874;29;20051;-89
2023/12/19 09:15:56;;;;;;;17.08;6.85;;;;;;;;;;4935139;29;20047;-89
2023/12/19 09:18:29;;;;;;;17.92;6.07;;;;;;;;;;4919198;29;20052;-89
2023/12/19 09:21:00;;;;;;;14.63;4.95;;;;;;;;;;4919504;29;20052;-89
2023/12/19 09:23:31;;;;;;;13.60;4.97;;;;;;;;;;4950013;29;20507;-88
2023/12/19 09:26:01;;;;;;;9.20;4.65;;;;;;;;;;4919043;29;20060;-88
2023/12/19 09:28:32;;;;;;;10.93;4.28;;;;;;;;;;4935406;29;20052;-88
2023/12/19 09:31:07;;;;;;;10.30;4.15;;;;;;;;;;4934193;29;20418;-89
2023/12/19 09:33:38;;;;;;;8.65;4.28;;;;;;;;;;4934171;29;20495;-90
2023/12/19 09:36:09;;;;;;;7.97;4.00;;;;;;;;;;4935265;29;20483;-89
2023/12/19 09:38:43;;;;;;;7.53;3.90;;;;;;;;;;4918856;29;20058;-90
2023/12/19 09:41:14;;;;;;;8.27;3.55;;;;;;;;;;4949612;29;20549;-89
2023/12/19 09:43:44;;;;;;;6.65;2.55;;;;;;;;;;4933879;29;20066;-87
2023/12/19 09:46:15;;;;;;;6.82;1.77;;;;;;;;;;4928179;29;20063;-88
2023/12/19 09:48:49;;;;;;;3.97;1.75;;;;;;;;;;4918010;29;20054;-89
2023/12/19 09:51:29;;;;;;;2.78;1.70;;;;;;;;;;4917295;29;20157;-89
2023/12/19 09:54:01;;;;;;;4.07;1.50;;;;;;;;;;4920948;29;20043;-90
2023/12/19 09:56:32;;;;;;;5.03;2.75;;;;;;;;;;4906389;29;20055;-89
2023/12/19 09:59:04;;;;;;;3.40;1.98;;;;;;;;;;4921861;29;20063;-90
2023/12/19 10:01:38;;;;;;;4.70;2.10;;;;;;;;;;4907720;29;20052;-90
2023/12/19 10:04:13;;;;;;;4.57;2.28;;;;;;;;;;4906429;29;20059;-91
2023/12/19 10:07:00;;;;;;;4.32;2.22;;;;;;;;;;4931954;29;20059;-89
2023/12/19 10:09:31;;;;;;;5.25;2.03;;;;;;;;;;4919452;29;20447;-89
2023/12/19 10:12:12;;;;;;;4.10;2.08;;;;;;;;;;4943968;29;20052;-89
2023/12/19 10:14:46;;;;;;;3.70;2.03;;;;;;;;;;4936109;29;20055;-89
2023/12/19 10:17:17;;;;;;;3.55;2.00;;;;;;;;;;4925408;29;20047;-89
2023/12/19 10:19:48;;;;;;;3.05;1.92;;;;;;;;;;4925949;29;20047;-89
2023/12/19 10:22:21;;;;;;;3.22;1.98;;;;;;;;;;4927064;29;20051;-88
2023/12/19 10:25:00;;;;;;;4.45;1.63;;;;;;;;;;4926004;29;20059;-91
2023/12/19 10:27:30;;;;;;;2.85;1.73;;;;;;;;;;4928444;29;20063;-89
2023/12/19 10:30:18;;;;;;;4.97;1.90;;;;;;;;;;4922220;29;20058;-88
2023/12/19 10:32:56;;;;;;;5.40;2.33;;;;;;;;;;4922022;29;20047;-85
2023/12/19 10:35:36;;;;;;;3.92;2.20;;;;;;;;;;4939666;29;20410;-88
2023/12/19 10:38:09;;;;;;;3.53;1.60;;;;;;;;;;4938431;29;20044;-89
2023/12/19 10:40:40;;;;;;;4.40;2.10;;;;;;;;;;4932471;29;20055;-89
2023/12/19 10:43:11;;;;;;;2.80;1.80;;;;;;;;;;4941793;29;20051;-90
2023/12/19 10:45:44;;;;;;;3.85;1.50;;;;;;;;;;4938149;29;20054;-90
2023/12/19 10:48:14;;;;;;;5.75;1.48;;;;;;;;;;4922972;29;20047;-88
2023/12/19 10:50:46;;;;;;;4.03;2.65;;;;;;;;;;4940022;29;20051;-88
2023/12/19 10:53:18;;;;;;;;;;;;;;;;;;4906232;29;20522;-88
2023/12/19 10:55:55;;;;;;;4.72;1.90;;;;;;;;;;4923900;29;19923;-89
2023/12/19 10:58:26;;;;;;;5.28;1.40;;;;;;;;;;4909797;29;20533;-91
2023/12/19 11:00:58;;;;;;;2.63;1.50;;;;;;;;;;4957798;29;20050;-85
2023/12/19 11:03:48;;;;;;;2.38;1.23;;;;;;;;;;4938742;29;20052;-86
2023/12/19 11:06:22;;;;;;;2.15;1.25;;;;;;;;;;4917227;29;20060;-89
2023/12/19 11:08:56;;;;;;;2.17;1.20;;;;;;;;;;4902562;29;20060;-90
2023/12/19 11:11:36;;;;;;;3.20;1.35;;;;;;;;;;4919839;29;20059;-86
2023/12/19 11:14:06;;;;;;;3.42;1.40;;;;;;;;;;4921685;29;20066;-85
2023/12/19 11:16:50;;;;;;;2.65;1.45;;;;;;;;;;4936494;29;20052;-84
2023/12/19 11:19:31;;;;;;;3.03;1.35;;;;;;;;;;4937750;29;20044;-85
2023/12/19 11:22:25;;;;;;;2.45;1.25;;;;;;;;;;4921846;29;20082;-84
2023/12/19 11:25:22;;;;;;;1.88;1.10;;;;;;;;;;4921045;29;20052;-86
2023/12/19 11:28:05;;;;;;;2.17;1.45;;;;;;;;;;4937913;29;20515;-87
2023/12/19 11:30:39;;;;;;;4.07;1.50;;;;;;;;;;4922588;29;20048;-84
2023/12/19 11:33:15;;;;;;;2.92;1.30;;;;;;;;;;4922479;29;20423;-84
2023/12/19 11:35:46;;;;;;;3.58;1.42;;;;;;;;;;4926121;29;20044;-85
2023/12/19 11:38:25;;;;;;;5.43;1.50;;;;;;;;;;4937868;29;20051;-86
2023/12/19 11:40:57;;;;;;;3.75;1.30;;;;;;;;;;4935947;29;20454;-86
2023/12/19 11:43:29;;;;;;;4.80;1.42;;;;;;;;;;4936415;29;20066;-87
2023/12/19 11:46:11;;;;;;;5.65;1.30;;;;;;;;;;4935206;29;20061;-87
2023/12/19 11:48:46;;;;;;;4.82;1.33;;;;;;;;;;4935691;29;20051;-84
2023/12/19 11:51:55;;;;;;;2.58;1.40;;;;;;;;;;4938239;29;20051;-87
2023/12/19 11:54:25;;;;;;;5.22;1.85;;;;;;;;;;4935636;29;20128;-85
2023/12/19 11:57:01;;;;;;;1.77;1.05;;;;;;;;;;4952080;29;20074;-87
2023/12/19 11:59:49;;;;;;;2.85;1.30;;;;;;;;;;4920677;29;20048;-85
2023/12/19 12:02:31;;;;;;;4.38;1.40;;;;;;;;;;4920410;29;20051;-86
2023/12/19 12:05:19;;;;;;;2.15;1.27;;;;;;;;;;4936107;29;20063;-84
2023/12/19 12:07:51;;;;;;;9.75;1.60;;;;;;;;;;4935253;29;20051;-85
2023/12/19 12:10:25;;;;;;;4.82;1.60;;;;;;;;;;4935335;29;20051;-84
2023/12/19 12:12:58;;;;;;;5.05;1.65;;;;;;;;;;4939017;29;20043;-85
2023/12/19 12:15:33;;;;;;;3.83;1.70;;;;;;;;;;4920755;29;20056;-87
2023/12/19 12:18:06;;;;;;;4.50;2.10;;;;;;;;;;4936117;29;20133;-84
2023/12/19 12:20:37;;;;;;;5.35;2.33;;;;;;;;;;4935583;29;20047;-83
2023/12/19 12:23:08;;;;;;;5.03;2.30;;;;;;;;;;4921068;29;20044;-85
2023/12/19 12:25:38;;;;;;;5.80;2.58;;;;;;;;;;4936783;29;20054;-85
2023/12/19 12:28:11;;;;;;;7.85;3.20;;;;;;;;;;4951573;29;20376;-85
2023/12/19 12:30:42;;;;;;;4.18;2.55;;;;;;;;;;4919853;29;20043;-88
2023/12/19 12:33:16;;;;;;;5.85;2.70;;;;;;;;;;4919561;29;20067;-89
2023/12/19 12:36:16;;;;;;;4.38;2.10;;;;;;;;;;4919872;29;20070;-87
2023/12/19 12:38:46;;;;;;;3.38;2.28;;;;;;;;;;4919396;29;20044;-87
2023/12/19 12:41:33;;;;;;;5.03;2.30;;;;;;;;;;4902810;29;20054;-84
2023/12/19 12:44:12;;;;;;;5.05;2.40;;;;;;;;;;4905518;29;20052;-91
2023/12/19 12:46:58;;;;;;;11.00;6.15;;;;;;;;;;4907839;29;20534;-90
2023/12/19 12:49:32;;;;;;;5.97;3.50;;;;;;;;;;4904041;29;20494;-86
2023/12/19 12:52:13;;;;;;;7.00;4.00;;;;;;;;;;4903719;29;20066;-84
2023/12/19 12:54:43;;;;;;;6.15;3.53;;;;;;;;;;4935109;29;20058;-85
2023/12/19 12:57:20;;;;;;;4.35;2.72;;;;;;;;;;4905919;29;20056;-88
2023/12/19 13:00:15;;;;;;;6.65;2.80;;;;;;;;;;4920758;29;20146;-86
2023/12/19 13:02:55;;;;;;;7.10;2.72;;;;;;;;;;4935199;29;20063;-87
2023/12/19 13:05:26;;;;;;;5.93;3.05;;;;;;;;;;4935179;29;20055;-90
2023/12/19 13:07:56;;;;;;;7.90;3.40;;;;;;;;;;4905771;29;20067;-83
2023/12/19 13:10:36;;;;;;;6.25;2.72;;;;;;;;;;4919540;29;20071;-85
2023/12/19 13:13:06;;;;;;;6.30;2.95;;;;;;;;;;4919971;29;20055;-84
2023/12/19 13:15:38;;;;;;;6.57;2.75;;;;;;;;;;4919390;29;20043;-85
2023/12/19 13:18:10;;;;;;;4.80;2.65;;;;;;;;;;4919704;29;20140;-84
2023/12/19 13:20:41;;;;;;;7.85;2.67;;;;;;;;;;4934838;29;20059;-85
2023/12/19 13:23:11;;;;;;;5.13;2.10;;;;;;;;;;4934412;29;20047;-86
2023/12/19 13:25:41;;;;;;;5.38;2.70;;;;;;;;;;4934121;29;20055;-88
2023/12/19 13:28:13;;;;;;;9.45;2.70;;;;;;;;;;4939659;29;20051;-88
2023/12/19 13:30:45;;;;;;;6.18;2.95;;;;;;;;;;4938379;29;20055;-86
2023/12/19 13:33:15;;;;;;;8.27;2.60;;;;;;;;;;4939061;29;20043;-85
2023/12/19 13:35:45;;;;;;;6.55;2.78;;;;;;;;;;4922476;29;20055;-84
2023/12/19 13:38:18;;;;;;;5.40;3.00;;;;;;;;;;4940380;29;20059;-82
2023/12/19 13:40:51;;;;;;;7.38;2.58;;;;;;;;;;4938582;29;20048;-85
2023/12/19 13:43:24;;;;;;;5.95;2.50;;;;;;;;;;4923943;29;20047;-86
2023/12/19 13:45:55;;;;;;;5.95;2.25;;;;;;;;;;4938209;29;20059;-84
2023/12/19 13:48:25;;;;;;;13.45;2.70;;;;;;;;;;4939666;29;20052;-87
2023/12/19 13:50:56;;;;;;;6.03;2.30;;;;;;;;;;4938423;29;20048;-87
2023/12/19 13:53:27;;;;;;;6.43;2.83;;;;;;;;;;4922392;29;20066;-86
2023/12/19 13:55:59;;;;;;;4.85;2.35;;;;;;;;;;4923139;29;20060;-86
2023/12/19 13:58:31;;;;;;;5.30;2.30;;;;;;;;;;4942766;29;20051;-87
2023/12/19 14:01:01;;;;;;;4.75;2.53;;;;;;;;;;4939909;29;20405;-86
2023/12/19 14:03:34;;;;;;;7.68;2.30;;;;;;;;;;4940529;29;20080;-85
2023/12/19 14:06:06;;;;;;;7.82;2.72;;;;;;;;;;4939196;29;20051;-85
2023/12/19 14:08:47;;;;;;;4.50;2.50;;;;;;;;;;4937524;29;20375;-86
2023/12/19 14:11:18;;;;;;;3.95;2.33;;;;;;;;;;4938637;29;20051;-84
2023/12/19 14:13:49;;;;;;;4.30;2.42;;;;;;;;;;4938288;29;20048;-86
2023/12/19 14:16:20;;;;;;;4.68;2.42;;;;;;;;;;4922173;29;20052;-85
2023/12/19 14:22:06;;;;;;;4.28;2.08;;;;;;;;;;4938227;29;20055;-86
2023/12/19 14:24:39;;;;;;;4.20;2.10;;;;;;;;;;4937780;29;20391;-86
2023/12/19 14:27:12;;;;;;;5.88;2.38;;;;;;;;;;4939362;29;20122;-88
2023/12/19 14:29:45;;;;;;;5.25;2.38;;;;;;;;;;4938679;29;20051;-87
2023/12/19 14:32:16;;;;;;;3.90;2.35;;;;;;;;;;4937993;29;20058;-85
2023/12/19 14:34:48;;;;;;;5.30;2.38;;;;;;;;;;4937417;29;20052;-85
2023/12/19 14:37:19;;;;;;;5.45;2.40;;;;;;;;;;4939236;29;20399;-88
2023/12/19 14:43:08;;;;;;;5.28;2.13;;;;;;;;;;4939709;29;20502;-85
2023/12/19 14:45:39;;;;;;;8.15;2.55;;;;;;;;;;4923110;29;20052;-85
2023/12/19 14:48:09;;;;;;;11.43;3.03;;;;;;;;;;4945457;29;20407;-85
2023/12/19 14:50:40;;;;;;;3.72;1.80;;;;;;;;;;4949351;29;20102;-83
2023/12/19 14:53:09;;;;;;;6.65;2.38;;;;;;;;;;4951109;29;20048;-87
2023/12/19 14:55:39;;;;;;;3.55;2.10;;;;;;;;;;4934398;29;20055;-84
2023/12/19 14:58:11;;;;;;;7.97;2.13;;;;;;;;;;4952698;29;20050;-85
2023/12/19 15:00:42;;;;;;;4.07;2.22;;;;;;;;;;4961875;28;20036;-84
2023/12/19 15:03:13;;;;;;;7.45;1.90;;;;;;;;;;4953080;28;20030;-85
2023/12/19 15:05:43;;;;;;;5.18;2.13;;;;;;;;;;4921554;29;20038;-83
2023/12/19 15:08:14;;;;;;;3.38;1.95;;;;;;;;;;4955698;28;20042;-83
2023/12/19 15:10:46;;;;;;;5.13;2.40;;;;;;;;;;4955936;28;20032;-86
2023/12/19 15:13:26;;;;;;;5.97;2.40;;;;;;;;;;4925881;29;20447;-88
2023/12/19 15:15:58;;;;;;;4.93;2.40;;;;;;;;;;4930526;29;20091;-86
2023/12/19 15:18:28;;;;;;;5.25;2.45;;;;;;;;;;4931699;29;20619;-86
2023/12/19 15:21:08;;;;;;;4.85;2.17;;;;;;;;;;4903299;29;20048;-87
2023/12/19 15:23:38;;;;;;;4.70;2.22;;;;;;;;;;4897878;29;20055;-86
2023/12/19 15:26:08;;;;;;;4.82;2.30;;;;;;;;;;4928039;29;20044;-86
2023/12/19 15:28:38;;;;;;;4.85;2.22;;;;;;;;;;4931339;29;20534;-86
2023/12/19 15:31:08;;;;;;;4.68;2.10;;;;;;;;;;4935461;29;20055;-84
2023/12/19 15:33:39;;;;;;;3.40;2.13;;;;;;;;;;4936783;29;20044;-84
2023/12/19 15:36:20;;;;;;;5.50;1.90;;;;;;;;;;4919908;29;20055;-85
2023/12/19 15:38:50;;;;;;;4.45;2.10;;;;;;;;;;4938048;29;20039;-86
2023/12/19 15:41:22;;;;;;;8.30;2.63;;;;;;;;;;4920987;29;20044;-86
2023/12/19 15:43:55;;;;;;;4.55;2.10;;;;;;;;;;4919952;29;20043;-84
2023/12/19 15:46:39;;;;;;;6.07;2.78;;;;;;;;;;4922172;29;20047;-89
2023/12/19 15:49:12;;;;;;;3.97;2.08;;;;;;;;;;4937911;29;20505;-86
2023/12/19 15:51:58;;;;;;;2.85;1.90;;;;;;;;;;4933234;29;20103;-86
2023/12/19 15:54:30;;;;;;;5.20;2.10;;;;;;;;;;4922697;29;20040;-88
2023/12/19 15:57:07;;;;;;;;;;;;;;;;;;4951408;29;20410;-86
2023/12/19 15:59:44;;;;;;;6.40;2.65;;;;;;;;;;4936178;29;19927;-88